This is the latest recevied weather packets stored in our database for station/object KO6SRA-13. If no packets are shown the sender has not sent any weather packets the latest 10 day(s).
| Time | Temp. | Humidity | Pressure | Rain* | Wind** | Luminosity | Snow |
|---|---|---|---|---|---|---|---|
| 1787678847 | 20.56° C | 70% | 1018.9 hPa | 0 mm | - | 631 W/m² | - |
| 1787678547 | 20° C | 75% | 1018.9 hPa | 0 mm | - | 650 W/m² | - |
| 1787678246 | 19.44° C | 75% | 1018.8 hPa | 0 mm | - | 640 W/m² | - |
| 1787677941 | 19.44° C | 74% | 1018.9 hPa | 0 mm | - | 622 W/m² | - |
| 1787677636 | 19.44° C | 74% | 1019.1 hPa | 0 mm | - | 524 W/m² | - |
| 1787677336 | 19.44° C | 74% | 1018.9 hPa | 0 mm | - | 544 W/m² | - |
| 1787677035 | 19.44° C | 76% | 1019.1 hPa | 0 mm | - | 542 W/m² | - |
| 1787676731 | 18.89° C | 76% | 1019.1 hPa | 0 mm | - | 511 W/m² | - |
| 1787676426 | 18.89° C | 77% | 1018.7 hPa | 0 mm | - | 493 W/m² | - |
| 1787676123 | 18.89° C | 77% | 1018.9 hPa | 0 mm | - | 470 W/m² | - |
| 1787675817 | 18.89° C | 77% | 1018.9 hPa | 0 mm | - | 435 W/m² | - |
| 1787675514 | 18.89° C | 75% | 1018.9 hPa | 0 mm | - | 415 W/m² | - |
| 1787675212 | 18.89° C | 77% | 1018.9 hPa | 0 mm | - | 414 W/m² | - |
| 1787674906 | 19.44° C | 75% | 1018.9 hPa | 0 mm | - | 376 W/m² | - |
| 1787674602 | 18.89° C | 76% | 1018.8 hPa | 0 mm | - | 344 W/m² | - |
| 1787674297 | 18.89° C | 77% | 1018.7 hPa | 0 mm | - | 333 W/m² | - |
| 1787673992 | 18.89° C | 75% | 1018.7 hPa | 0 mm | - | 327 W/m² | - |
| 1787673688 | 18.89° C | 76% | 1018.8 hPa | 0 mm | - | 284 W/m² | - |
| 1787673388 | 18.33° C | 78% | 1018.7 hPa | 0 mm | - | 299 W/m² | - |
| 1787673082 | 18.33° C | 77% | 1018.8 hPa | 0 mm | - | 297 W/m² | - |
| 1787672782 | 18.33° C | 78% | 1018.7 hPa | 0 mm | - | 251 W/m² | - |
| 1787672478 | 17.22° C | 81% | 1018.8 hPa | 0 mm | - | 285 W/m² | - |
| 1787672177 | 17.78° C | 78% | 1018.9 hPa | 0 mm | - | 135 W/m² | - |
| 1787671871 | 17.78° C | 80% | 1019 hPa | 0 mm | - | 128 W/m² | - |
| 1787671568 | 17.22° C | 82% | 1019 hPa | 0 mm | - | 126 W/m² | - |
* Rain latest hour (hover to see other rain measurements)
** Current wind speed in m/s (hover to see current wind gust speed)